createdAt,value
2022-10-23T00:00:16.895Z,5.70
2022-10-23T00:05:20.477Z,5.85
2022-10-23T00:10:23.903Z,6.23
2022-10-23T00:15:27.553Z,5.85
2022-10-23T00:20:30.034Z,5.33
2022-10-23T00:25:33.570Z,5.43
2022-10-23T00:30:36.126Z,5.38
2022-10-23T00:35:42.465Z,5.50
2022-10-23T00:40:47.129Z,5.20
2022-10-23T00:45:49.713Z,4.78
2022-10-23T00:50:52.441Z,4.50
2022-10-23T00:55:57.735Z,5.40
2022-10-23T01:01:00.208Z,4.90
2022-10-23T01:06:16.638Z,4.23
2022-10-23T01:11:34.572Z,5.10
2022-10-23T01:17:10.052Z,4.20
2022-10-23T01:22:42.696Z,3.83
2022-10-23T01:27:49.589Z,3.30
2022-10-23T01:32:54.563Z,3.00
2022-10-23T01:38:22.612Z,2.87
2022-10-23T01:43:32.601Z,2.75
2022-10-23T01:48:36.169Z,3.17
2022-10-23T01:53:41.365Z,2.50
2022-10-23T01:58:46.261Z,3.35
2022-10-23T02:03:49.360Z,3.00
2022-10-23T02:08:52.006Z,2.65
2022-10-23T02:14:32.455Z,3.13
2022-10-23T02:19:47.875Z,2.97
2022-10-23T02:25:13.866Z,3.60
2022-10-23T02:30:19.550Z,2.97
2022-10-23T02:35:23.782Z,3.10
2022-10-23T02:40:36.357Z,3.00
2022-10-23T02:45:49.983Z,3.67
2022-10-23T02:51:11.900Z,3.28
2022-10-23T02:56:22.962Z,3.25
2022-10-23T03:01:35.863Z,3.23
2022-10-23T03:06:38.565Z,3.80
2022-10-23T03:11:41.096Z,2.90
2022-10-23T03:16:43.546Z,3.95
2022-10-23T03:21:45.986Z,3.38
2022-10-23T03:26:48.497Z,3.40
2022-10-23T03:31:50.936Z,3.30
2022-10-23T03:36:53.487Z,3.00
2022-10-23T03:41:55.919Z,3.05
2022-10-23T03:46:58.570Z,3.38
2022-10-23T03:52:01.168Z,3.40
2022-10-23T03:57:03.782Z,3.45
2022-10-23T04:02:06.299Z,3.60
2022-10-23T04:07:08.798Z,3.90
2022-10-23T04:12:11.257Z,3.83
2022-10-23T04:17:13.700Z,4.43
2022-10-23T04:22:16.172Z,3.38
2022-10-23T04:27:18.792Z,3.40
2022-10-23T04:32:21.265Z,3.20
2022-10-23T04:37:23.732Z,4.57
2022-10-23T04:47:29.524Z,3.10
2022-10-23T04:52:31.971Z,3.78
2022-10-23T04:57:34.681Z,3.80
2022-10-23T05:02:37.120Z,4.85
2022-10-23T05:07:40.911Z,4.15
2022-10-23T05:12:43.735Z,4.07
2022-10-23T05:17:48.823Z,4.22
2022-10-23T05:22:52.599Z,4.20
2022-10-23T05:27:55.191Z,4.10
2022-10-23T05:32:57.618Z,3.55
2022-10-23T05:38:01.042Z,3.33
2022-10-23T05:43:03.590Z,4.00
2022-10-23T05:48:11.392Z,4.50
2022-10-23T05:53:24.868Z,5.70
2022-10-23T05:58:27.351Z,6.57
2022-10-23T06:03:29.808Z,5.90
2022-10-23T06:08:33.119Z,4.63
2022-10-23T06:13:35.887Z,4.60
2022-10-23T06:18:38.432Z,4.20
2022-10-23T06:23:41.797Z,4.03
2022-10-23T06:28:44.771Z,3.58
2022-10-23T06:33:47.418Z,3.20
2022-10-23T06:38:49.999Z,3.43
2022-10-23T06:43:53.487Z,4.10
2022-10-23T06:48:55.920Z,3.10
2022-10-23T06:53:58.487Z,3.07
2022-10-23T06:59:01.356Z,2.60
2022-10-23T07:04:03.993Z,3.00
2022-10-23T07:09:07.770Z,3.03
2022-10-23T07:14:10.219Z,2.40
2022-10-23T07:19:12.627Z,2.50
2022-10-23T07:24:15.077Z,1.98
2022-10-23T07:29:17.725Z,2.70
2022-10-23T07:34:20.335Z,2.10
2022-10-23T07:39:22.832Z,2.65
2022-10-23T07:44:27.622Z,2.07
2022-10-23T07:49:30.500Z,1.70
2022-10-23T07:54:33.034Z,2.20
2022-10-23T07:59:37.915Z,2.15
2022-10-23T08:04:41.081Z,1.90
2022-10-23T08:09:43.614Z,2.45
2022-10-23T08:14:46.057Z,2.20
2022-10-23T08:19:49.103Z,2.40
2022-10-23T08:24:52.707Z,2.80
2022-10-23T08:29:55.262Z,2.20
2022-10-23T08:34:57.805Z,2.07
2022-10-23T08:40:00.408Z,2.53
2022-10-23T08:45:08.070Z,2.28
2022-10-23T08:50:22.181Z,2.08
2022-10-23T08:55:31.455Z,1.83
2022-10-23T09:00:34.285Z,2.28
2022-10-23T09:06:08.868Z,2.35
2022-10-23T09:11:16.636Z,2.30
2022-10-23T09:16:45.474Z,2.20
2022-10-23T09:21:51.981Z,2.22
2022-10-23T09:26:55.235Z,2.20
2022-10-23T09:32:00.568Z,1.87
2022-10-23T09:37:17.864Z,2.45
2022-10-23T09:42:25.645Z,1.90
2022-10-23T09:47:28.638Z,1.80
2022-10-23T09:52:36.304Z,2.20
2022-10-23T09:57:43.535Z,2.22
2022-10-23T10:02:56.762Z,2.27
2022-10-23T10:08:22.939Z,2.35
2022-10-23T10:13:33.970Z,2.35
2022-10-23T10:18:40.852Z,2.90
2022-10-23T10:23:50.696Z,2.53
2022-10-23T10:29:29.764Z,4.57
2022-10-23T10:34:37.958Z,4.30
2022-10-23T10:39:43.500Z,3.87
2022-10-23T10:45:04.510Z,3.67
2022-10-23T10:50:24.113Z,2.95
2022-10-23T10:55:38.445Z,3.20
2022-10-23T11:00:41.088Z,2.40
2022-10-23T11:05:45.971Z,2.60
2022-10-23T11:10:53.538Z,2.70
2022-10-23T11:16:02.652Z,2.97
2022-10-23T11:21:08.529Z,3.42
2022-10-23T11:26:34.119Z,3.53
2022-10-23T11:31:39.435Z,3.60
2022-10-23T11:36:56.229Z,3.55
2022-10-23T11:42:00.988Z,3.17
2022-10-23T11:47:24.268Z,3.37
2022-10-23T11:52:27.854Z,2.55
2022-10-23T12:02:43.698Z,2.43
2022-10-23T12:07:46.815Z,2.63
2022-10-23T12:12:58.336Z,2.50
2022-10-23T12:18:30.675Z,3.22
2022-10-23T12:23:41.195Z,2.37
2022-10-23T12:28:51.588Z,2.65
2022-10-23T12:34:10.054Z,2.70
2022-10-23T12:39:40.303Z,2.83
2022-10-23T12:44:42.932Z,3.10
2022-10-23T12:49:50.226Z,2.90
2022-10-23T12:54:52.861Z,3.13
2022-10-23T13:00:12.802Z,3.83
2022-10-23T13:05:20.624Z,2.60
2022-10-23T13:10:24.217Z,2.67
2022-10-23T13:15:39.383Z,2.90
2022-10-23T13:20:54.014Z,2.80
2022-10-23T13:26:20.043Z,3.70
2022-10-23T13:31:25.971Z,2.73
2022-10-23T13:36:32.559Z,3.05
2022-10-23T13:41:38.865Z,3.00
2022-10-23T13:46:42.314Z,2.90
2022-10-23T13:51:55.519Z,3.50
2022-10-23T13:56:58.328Z,2.97
2022-10-23T14:02:00.947Z,3.42
2022-10-23T14:07:03.453Z,2.93
2022-10-23T14:12:06.007Z,3.75
2022-10-23T14:17:08.575Z,3.03
2022-10-23T14:22:11.040Z,3.33
2022-10-23T14:27:13.596Z,2.70
2022-10-23T14:32:16.024Z,2.63
2022-10-23T14:37:19.570Z,2.37
2022-10-23T14:42:21.999Z,2.40
2022-10-23T14:47:24.523Z,2.10
2022-10-23T14:52:26.977Z,2.60
2022-10-23T14:57:29.420Z,2.40
2022-10-23T15:02:33.938Z,2.70
2022-10-23T15:07:36.478Z,2.80
2022-10-23T15:12:39.663Z,3.20
2022-10-23T15:17:42.435Z,3.05
2022-10-23T15:22:45.017Z,3.50
2022-10-23T15:27:48.464Z,4.07
2022-10-23T15:32:50.918Z,4.03
2022-10-23T15:37:53.444Z,4.78
2022-10-23T15:42:55.895Z,5.28
2022-10-23T15:47:58.651Z,8.87
2022-10-23T15:53:01.239Z,9.93
2022-10-23T15:58:05.548Z,8.27
2022-10-23T16:03:08.033Z,7.47
2022-10-23T16:08:10.522Z,9.73
2022-10-23T16:13:12.983Z,10.02
2022-10-23T16:18:18.051Z,10.07
2022-10-23T16:23:20.558Z,10.23
2022-10-23T16:28:23.103Z,5.50
2022-10-23T16:33:25.573Z,4.77
2022-10-23T16:38:28.039Z,6.57
2022-10-23T16:43:30.590Z,9.30
2022-10-23T16:48:34.359Z,24.50
2022-10-23T16:53:36.968Z,13.60
2022-10-23T16:58:43.571Z,7.70
2022-10-23T17:03:49.457Z,6.47
2022-10-23T17:08:54.053Z,7.05
2022-10-23T17:13:59.907Z,8.23
2022-10-23T17:19:08.393Z,7.23
2022-10-23T17:24:14.360Z,8.55
2022-10-23T17:29:17.083Z,6.57
2022-10-23T17:34:23.547Z,9.07
2022-10-23T17:39:28.244Z,11.35
2022-10-23T17:44:30.791Z,9.60
2022-10-23T17:49:34.096Z,9.83
2022-10-23T17:54:39.019Z,6.03
2022-10-23T17:59:41.486Z,5.77
2022-10-23T18:04:44.061Z,5.93
2022-10-23T18:09:46.839Z,6.45
2022-10-23T18:14:49.544Z,6.53
2022-10-23T18:19:52.182Z,5.32
2022-10-23T18:24:54.676Z,4.18
2022-10-23T18:29:57.236Z,5.07
2022-10-23T18:34:59.742Z,3.97
2022-10-23T18:40:02.200Z,4.38
2022-10-23T18:45:04.919Z,2.93
2022-10-23T18:50:07.936Z,3.95
2022-10-23T18:55:13.194Z,3.00
2022-10-23T19:00:16.110Z,2.67
2022-10-23T19:05:18.644Z,3.90
2022-10-23T19:10:22.657Z,3.77
2022-10-23T19:15:25.203Z,4.60
2022-10-23T19:25:35.976Z,4.13
2022-10-23T19:30:38.454Z,4.90
2022-10-23T19:35:40.918Z,4.47
2022-10-23T19:40:43.390Z,4.93
2022-10-23T19:45:45.859Z,8.45
2022-10-23T19:50:48.317Z,5.57
2022-10-23T19:55:50.810Z,7.07
2022-10-23T20:01:04.029Z,5.47
2022-10-23T20:06:09.957Z,5.40
2022-10-23T20:11:20.971Z,5.35
2022-10-23T20:16:30.473Z,5.93
2022-10-23T20:21:34.939Z,5.88
2022-10-23T20:26:45.073Z,5.03
2022-10-23T20:31:47.831Z,5.10
2022-10-23T20:36:50.517Z,4.07
2022-10-23T20:41:55.307Z,4.17
2022-10-23T20:46:57.817Z,4.80
2022-10-23T20:52:00.303Z,4.20
2022-10-23T20:57:02.795Z,5.70
2022-10-23T21:02:05.515Z,6.28
2022-10-23T21:07:10.782Z,6.90
2022-10-23T21:12:14.009Z,8.77
2022-10-23T21:17:18.129Z,8.80
2022-10-23T21:22:20.663Z,8.45
2022-10-23T21:27:23.485Z,8.38
2022-10-23T21:32:25.965Z,9.63
2022-10-23T21:37:29.081Z,8.18
2022-10-23T21:42:33.678Z,7.88
2022-10-23T21:47:36.589Z,7.40
2022-10-23T21:52:39.190Z,7.80
2022-10-23T21:57:41.634Z,8.17
2022-10-23T22:02:44.484Z,8.75
2022-10-23T22:07:48.172Z,9.45
2022-10-23T22:12:50.668Z,8.07
2022-10-23T22:17:53.145Z,5.57
2022-10-23T22:22:55.620Z,6.00
2022-10-23T22:27:59.227Z,5.35
2022-10-23T22:33:01.657Z,4.85
2022-10-23T22:38:04.106Z,3.90
2022-10-23T22:43:06.590Z,4.35
2022-10-23T22:48:09.022Z,3.67
2022-10-23T22:53:11.504Z,3.90
2022-10-23T22:58:13.981Z,3.67
2022-10-23T23:03:16.791Z,4.40
2022-10-23T23:08:19.241Z,3.80
2022-10-23T23:13:22.012Z,4.93
2022-10-23T23:18:24.708Z,5.32
2022-10-23T23:23:27.131Z,5.80
2022-10-23T23:28:29.721Z,6.60
2022-10-23T23:33:32.236Z,6.28
2022-10-23T23:38:35.445Z,7.53
2022-10-23T23:43:37.859Z,5.75
2022-10-23T23:48:42.249Z,5.68
2022-10-23T23:53:44.709Z,5.77
2022-10-23T23:58:47.195Z,5.65
